Time;durP1;ratioP1;P1;durP2;ratioP2;P2;SDS_P1;SDS_P2;PMS_P1;PMS_P2;Temp;Humidity;BMP_temperature;BMP_pressure;BME280_temperature;BME280_humidity;BME280_pressure;Samples;Min_cycle;Max_cycle;Signal;HPM_P1;HPM_P2
2022/11/23 00:01:12;;;;;;;7.27;3.10;;;3.20;99.90;;;;;;5034935;28;20190;-42
2022/11/23 00:03:38;;;;;;;7.33;3.33;;;3.20;99.90;;;;;;5029206;28;20190;-42
2022/11/23 00:06:04;;;;;;;8.40;3.13;;;3.20;99.90;;;;;;5022182;28;20182;-42
2022/11/23 00:08:30;;;;;;;7.80;2.73;;;3.30;99.90;;;;;;5013141;28;20226;-42
2022/11/23 00:10:59;;;;;;;6.73;2.57;;;3.20;99.90;;;;;;5029655;28;20206;-42
2022/11/23 00:13:25;;;;;;;5.23;2.47;;;3.20;99.90;;;;;;5030212;28;20182;-41
2022/11/23 00:15:51;;;;;;;7.07;3.20;;;3.20;99.90;;;;;;5013390;28;20174;-42
2022/11/23 00:18:17;;;;;;;6.17;3.67;;;3.20;99.90;;;;;;5042234;28;20201;-42
2022/11/23 00:20:43;;;;;;;8.10;4.67;;;3.10;99.90;;;;;;5033057;28;20597;-43
2022/11/23 00:23:09;;;;;;;6.40;3.87;;;3.10;99.90;;;;;;5049570;28;20209;-42
2022/11/23 00:25:35;;;;;;;6.73;4.40;;;3.00;99.90;;;;;;5049289;28;20200;-41
2022/11/23 00:28:00;;;;;;;6.53;4.17;;;2.90;99.90;;;;;;5048760;28;20256;-40
2022/11/23 00:30:28;;;;;;;6.20;3.73;;;3.00;99.90;;;;;;5032974;28;20275;-40
2022/11/23 00:32:54;;;;;;;8.07;3.93;;;3.00;99.90;;;;;;5049538;28;20189;-41
2022/11/23 00:35:21;;;;;;;8.73;4.70;;;2.90;99.90;;;;;;5032814;28;20197;-41
2022/11/23 00:37:47;;;;;;;7.07;4.13;;;2.80;99.90;;;;;;5032432;28;20240;-40
2022/11/23 00:40:13;;;;;;;10.33;4.40;;;2.70;99.90;;;;;;5031929;28;20232;-41
2022/11/23 00:42:39;;;;;;;11.20;5.10;;;2.70;99.90;;;;;;5045096;28;20175;-41
2022/11/23 00:45:05;;;;;;;5.80;4.23;;;2.60;99.90;;;;;;5029456;28;20191;-41
2022/11/23 00:47:31;;;;;;;6.83;4.20;;;2.60;99.90;;;;;;5029231;28;20202;-41
2022/11/23 00:49:57;;;;;;;7.90;4.77;;;2.60;99.90;;;;;;5029392;28;20713;-41
2022/11/23 00:52:23;;;;;;;10.30;4.97;;;2.60;99.90;;;;;;5029587;28;20210;-41
2022/11/23 00:54:49;;;;;;;6.50;4.07;;;2.60;99.90;;;;;;5029191;28;20179;-40
2022/11/23 00:57:15;;;;;;;10.83;4.40;;;2.50;99.90;;;;;;5045690;28;20209;-41
2022/11/23 00:59:43;;;;;;;6.47;4.10;;;2.50;99.90;;;;;;5045956;28;20285;-40
2022/11/23 01:02:08;;;;;;;9.30;4.43;;;2.50;99.90;;;;;;5045977;28;20277;-41
2022/11/23 01:04:34;;;;;;;6.70;4.23;;;2.60;99.90;;;;;;5049034;28;20185;-41
2022/11/23 01:07:00;;;;;;;11.63;4.60;;;2.60;99.90;;;;;;5032152;28;20212;-41
2022/11/23 01:09:26;;;;;;;7.53;4.40;;;2.60;99.90;;;;;;5032627;28;20177;-40
2022/11/23 01:11:53;;;;;;;10.03;4.40;;;2.50;99.90;;;;;;5049243;28;20208;-41
2022/11/23 01:14:23;;;;;;;10.23;4.40;;;2.50;99.90;;;;;;5033135;28;20182;-41
2022/11/23 01:16:49;;;;;;;7.03;4.23;;;2.50;99.90;;;;;;5032171;28;20221;-40
2022/11/23 01:19:17;;;;;;;6.13;4.03;;;2.50;99.90;;;;;;5032374;28;20174;-41
2022/11/23 01:21:46;;;;;;;6.83;3.70;;;2.50;99.90;;;;;;5032751;28;20178;-42
2022/11/23 01:24:17;;;;;;;6.20;3.70;;;2.50;99.90;;;;;;5032329;28;20204;-41
2022/11/23 01:26:44;;;;;;;7.03;4.07;;;2.50;99.90;;;;;;5032167;28;20205;-40
2022/11/23 01:29:10;;;;;;;8.43;4.37;;;2.50;99.90;;;;;;5050257;28;20630;-40
2022/11/23 01:31:39;;;;;;;7.33;4.70;;;2.60;99.90;;;;;;5048750;28;20263;-40
2022/11/23 01:34:05;;;;;;;7.30;4.50;;;2.60;99.90;;;;;;5032088;28;20740;-40
2022/11/23 01:36:34;;;;;;;9.67;5.03;;;2.60;99.90;;;;;;5048817;28;20170;-39
2022/11/23 01:39:01;;;;;;;8.27;4.83;;;2.50;99.90;;;;;;5032309;28;20182;-41
2022/11/23 01:41:29;;;;;;;16.70;4.67;;;2.60;99.90;;;;;;5032157;28;20190;-41
2022/11/23 01:43:56;;;;;;;7.33;4.77;;;2.50;99.90;;;;;;5032011;28;20627;-39
2022/11/23 01:46:22;;;;;;;6.30;4.23;;;2.40;99.90;;;;;;5048665;28;20272;-41
2022/11/23 01:48:53;;;;;;;9.33;4.87;;;2.40;99.90;;;;;;5048232;28;20220;-40
2022/11/23 01:51:28;;;;;;;9.40;4.23;;;2.40;99.90;;;;;;5032047;28;20218;-40
2022/11/23 01:53:59;;;;;;;7.27;4.37;;;2.40;99.90;;;;;;5033237;28;20699;-41
2022/11/23 01:56:33;;;;;;;8.40;4.50;;;2.30;99.90;;;;;;5052462;28;20178;-40
2022/11/23 01:59:03;;;;;;;6.93;4.13;;;2.20;99.90;;;;;;5035959;28;20181;-40
2022/11/23 02:01:29;;;;;;;8.27;4.37;;;2.10;99.90;;;;;;5035450;28;20251;-41
2022/11/23 02:03:57;;;;;;;5.07;3.63;;;2.10;99.90;;;;;;5035628;28;20612;-41
2022/11/23 02:06:23;;;;;;;6.20;4.07;;;2.10;99.90;;;;;;5035572;28;20205;-40
2022/11/23 02:08:51;;;;;;;9.17;4.37;;;2.00;99.90;;;;;;5051817;28;20190;-41
2022/11/23 02:11:19;;;;;;;6.40;4.30;;;2.00;99.90;;;;;;5051961;28;20205;-39
2022/11/23 02:13:49;;;;;;;6.93;4.23;;;1.90;99.90;;;;;;5035466;28;20182;-38
2022/11/23 02:16:16;;;;;;;8.93;4.60;;;1.80;99.90;;;;;;5035245;28;20219;-40
2022/11/23 02:18:47;;;;;;;8.73;5.27;;;1.70;99.90;;;;;;5035290;28;20194;-40
2022/11/23 02:21:13;;;;;;;7.93;5.00;;;1.60;99.90;;;;;;5051954;28;20188;-40
2022/11/23 02:23:44;;;;;;;9.83;5.13;;;1.60;99.90;;;;;;5036104;28;20181;-40
2022/11/23 02:26:28;;;;;;;9.83;4.83;;;1.70;99.90;;;;;;5035215;28;20185;-40
2022/11/23 02:28:54;;;;;;;8.43;4.93;;;1.70;99.90;;;;;;5034888;28;20281;-40
2022/11/23 02:31:20;;;;;;;8.77;5.00;;;1.70;99.90;;;;;;5052990;28;20296;-40
2022/11/23 02:33:45;;;;;;;7.63;4.80;;;1.60;99.90;;;;;;5051571;28;20186;-40
2022/11/23 02:36:35;;;;;;;7.73;4.90;;;1.60;99.90;;;;;;5034957;28;20196;-40
2022/11/23 02:39:25;;;;;;;11.80;5.50;;;1.60;99.90;;;;;;5051612;28;20202;-41
2022/11/23 02:41:52;;;;;;;21.80;13.10;;;1.50;99.90;;;;;;5027581;28;20189;-40
2022/11/23 02:44:30;;;;;;;8.50;5.07;;;1.40;99.90;;;;;;5051075;28;20212;-41
2022/11/23 02:46:57;;;;;;;8.27;4.97;;;1.40;99.90;;;;;;5034564;28;20201;-40
2022/11/23 02:49:23;;;;;;;11.30;4.90;;;1.40;99.90;;;;;;5051267;28;20227;-40
2022/11/23 02:51:50;;;;;;;7.63;4.83;;;1.50;99.90;;;;;;5034743;28;20181;-40
2022/11/23 02:54:16;;;;;;;6.53;4.20;;;1.60;99.90;;;;;;5034592;28;20725;-41
2022/11/23 02:56:42;;;;;;;6.70;4.03;;;1.60;99.90;;;;;;5034614;28;20327;-40
2022/11/23 02:59:08;;;;;;;9.60;4.60;;;1.70;99.90;;;;;;5034380;28;20212;-40
2022/11/23 03:01:34;;;;;;;7.00;4.30;;;1.70;99.90;;;;;;5051100;28;20203;-40
2022/11/23 03:04:00;;;;;;;8.37;4.33;;;1.70;99.90;;;;;;5052394;28;20178;-41
2022/11/23 03:06:28;;;;;;;8.17;3.83;;;1.70;99.90;;;;;;5051394;28;20178;-37
2022/11/23 03:08:54;;;;;;;9.40;4.50;;;1.70;99.90;;;;;;5034304;28;20255;-40
2022/11/23 03:11:21;;;;;;;9.50;5.07;;;1.70;99.90;;;;;;5034456;28;20585;-40
2022/11/23 03:13:46;;;;;;;10.70;5.37;;;1.60;99.90;;;;;;5051095;28;20238;-40
2022/11/23 03:16:13;;;;;;;9.13;5.33;;;1.60;99.90;;;;;;5034134;28;20187;-41
2022/11/23 03:18:39;;;;;;;8.33;4.37;;;1.70;99.90;;;;;;5033860;28;20205;-41
2022/11/23 03:21:09;;;;;;;8.40;4.90;;;1.70;99.90;;;;;;5034485;28;20189;-40
2022/11/23 03:23:37;;;;;;;9.03;4.50;;;1.70;99.90;;;;;;5034351;28;20220;-40
2022/11/23 03:26:06;;;;;;;10.27;4.17;;;1.70;99.90;;;;;;5050714;28;20186;-40
2022/11/23 03:28:37;;;;;;;7.53;4.47;;;1.60;99.90;;;;;;5034477;28;20204;-36
2022/11/23 03:31:04;;;;;;;7.00;4.53;;;1.60;99.90;;;;;;5033805;28;20232;-35
2022/11/23 03:33:30;;;;;;;5.90;3.23;;;1.60;99.90;;;;;;5034120;28;20185;-38
2022/11/23 03:35:56;;;;;;;7.33;3.87;;;1.60;99.90;;;;;;5018043;28;20282;-35
2022/11/23 03:38:26;;;;;;;6.27;4.07;;;1.60;99.90;;;;;;5030380;28;20203;-38
2022/11/23 03:40:53;;;;;;;6.60;4.60;;;1.50;99.90;;;;;;5014077;28;20185;-38
2022/11/23 03:43:23;;;;;;;6.87;4.50;;;1.50;99.90;;;;;;5030240;28;20241;-34
2022/11/23 03:45:49;;;;;;;7.33;5.10;;;1.40;99.90;;;;;;5013933;28;20212;-37
2022/11/23 03:48:15;;;;;;;5.53;4.10;;;1.40;99.90;;;;;;5013678;28;20208;-40
2022/11/23 03:50:42;;;;;;;8.73;4.50;;;1.40;99.90;;;;;;5030275;28;20214;-41
2022/11/23 03:53:08;;;;;;;7.37;4.53;;;1.40;99.90;;;;;;5014211;28;20208;-39
2022/11/23 03:55:34;;;;;;;8.00;4.63;;;1.40;99.90;;;;;;5042474;28;20220;-40
2022/11/23 03:58:02;;;;;;;8.80;4.63;;;1.40;99.90;;;;;;5033179;28;20193;-40
2022/11/23 04:00:33;;;;;;;7.47;4.67;;;1.50;99.90;;;;;;5033773;28;20188;-41
2022/11/23 04:02:59;;;;;;;7.27;4.70;;;1.60;99.90;;;;;;5033580;28;20185;-39
2022/11/23 04:05:47;;;;;;;6.10;3.73;;;1.70;99.90;;;;;;5045356;28;20212;-40
2022/11/23 04:08:32;;;;;;;6.60;3.83;;;1.60;99.90;;;;;;5049879;28;20217;-39
2022/11/23 04:10:59;;;;;;;5.57;3.93;;;1.60;99.90;;;;;;5049700;28;20213;-41
2022/11/23 04:13:45;;;;;;;6.67;4.10;;;1.60;99.90;;;;;;5049428;28;20185;-40
2022/11/23 04:16:11;;;;;;;7.73;3.93;;;1.70;99.90;;;;;;5032883;28;20177;-41
2022/11/23 04:18:37;;;;;;;7.50;3.73;;;1.70;99.90;;;;;;5032909;28;20198;-40
2022/11/23 04:21:04;;;;;;;8.63;3.80;;;1.80;99.90;;;;;;5033122;28;20178;-40
2022/11/23 04:23:29;;;;;;;5.47;4.00;;;1.70;99.90;;;;;;5049532;28;20221;-39
2022/11/23 04:25:57;;;;;;;7.07;3.60;;;1.60;99.90;;;;;;5033413;28;20192;-40
2022/11/23 04:28:23;;;;;;;12.07;3.67;;;1.60;99.90;;;;;;5032944;28;20288;-39
2022/11/23 04:30:50;;;;;;;5.90;3.30;;;1.70;99.90;;;;;;5033169;28;20213;-39
2022/11/23 04:33:17;;;;;;;8.50;3.70;;;1.70;99.90;;;;;;5032493;28;20223;-39
2022/11/23 04:35:44;;;;;;;5.97;3.40;;;1.70;99.90;;;;;;5033010;28;20193;-39
2022/11/23 04:38:10;;;;;;;6.27;4.30;;;1.70;99.90;;;;;;5032496;28;20194;-38
2022/11/23 04:40:37;;;;;;;9.30;4.40;;;1.70;99.90;;;;;;5035647;28;20208;-38
2022/11/23 04:43:05;;;;;;;10.10;4.17;;;1.70;99.90;;;;;;5015088;28;20181;-40
2022/11/23 04:45:38;;;;;;;7.20;4.23;;;1.60;99.90;;;;;;5014965;28;20218;-40
2022/11/23 04:48:06;;;;;;;6.67;3.93;;;1.60;99.90;;;;;;5029201;28;20202;-41
2022/11/23 04:50:34;;;;;;;14.10;5.97;;;1.70;99.90;;;;;;5012768;28;20209;-40
2022/11/23 04:53:02;;;;;;;10.37;6.07;;;1.70;99.90;;;;;;5029090;28;20236;-39
2022/11/23 04:55:36;;;;;;;17.43;8.70;;;1.70;99.90;;;;;;5030577;28;20196;-41
2022/11/23 04:58:03;;;;;;;12.20;7.97;;;1.70;99.90;;;;;;5031079;28;20204;-40
2022/11/23 05:00:32;;;;;;;11.40;5.53;;;1.70;99.90;;;;;;5066495;28;20649;-39
2022/11/23 05:03:01;;;;;;;9.73;5.43;;;1.80;99.90;;;;;;5052333;28;20155;-41
2022/11/23 05:05:32;;;;;;;10.23;4.80;;;1.80;99.90;;;;;;5022530;28;20249;-41
2022/11/23 05:07:59;;;;;;;10.77;5.60;;;1.90;99.90;;;;;;5033900;28;20280;-41
2022/11/23 05:10:37;;;;;;;10.33;6.33;;;1.90;99.90;;;;;;5048674;28;20217;-40
2022/11/23 05:13:04;;;;;;;11.90;5.90;;;1.90;99.90;;;;;;5032956;28;20174;-36
2022/11/23 05:15:30;;;;;;;9.40;5.77;;;2.00;99.90;;;;;;5065488;28;20174;-38
2022/11/23 05:18:05;;;;;;;11.40;7.50;;;2.00;99.90;;;;;;5048730;28;20198;-35
2022/11/23 05:20:32;;;;;;;14.17;6.93;;;2.00;99.90;;;;;;5032328;28;20641;-38
2022/11/23 05:22:58;;;;;;;9.53;5.53;;;2.00;99.90;;;;;;5032518;28;20753;-35
2022/11/23 05:25:25;;;;;;;11.87;5.63;;;1.90;99.90;;;;;;5048471;28;20269;-37
2022/11/23 05:27:58;;;;;;;8.60;5.43;;;1.90;99.90;;;;;;5032791;28;20202;-36
2022/11/23 05:30:25;;;;;;;9.20;5.23;;;1.90;99.90;;;;;;5054167;28;20216;-34
2022/11/23 05:32:51;;;;;;;9.43;6.57;;;1.90;99.90;;;;;;5035983;28;20174;-35
2022/11/23 05:35:18;;;;;;;12.83;8.00;;;1.90;99.90;;;;;;5036350;28;20323;-37
2022/11/23 05:37:44;;;;;;;13.60;7.40;;;1.80;99.90;;;;;;5035371;28;20284;-36
2022/11/23 05:40:11;;;;;;;15.63;7.33;;;1.80;99.90;;;;;;5035981;28;20174;-36
2022/11/23 05:42:37;;;;;;;77.47;45.23;;;1.80;99.90;;;;;;5068858;28;20188;-35
2022/11/23 05:45:14;;;;;;;87.30;54.03;;;1.70;99.90;;;;;;5052429;28;20177;-36
2022/11/23 05:47:54;;;;;;;64.87;43.10;;;1.70;99.90;;;;;;5052415;28;20224;-35
2022/11/23 05:50:28;;;;;;;29.17;19.93;;;1.80;99.90;;;;;;5052060;28;20209;-37
2022/11/23 05:53:12;;;;;;;17.00;12.63;;;1.80;99.90;;;;;;5053522;28;20189;-36
2022/11/23 05:55:40;;;;;;;13.97;10.03;;;1.80;99.90;;;;;;5052259;28;20209;-33
2022/11/23 05:58:07;;;;;;;10.33;6.27;;;1.80;99.90;;;;;;5051921;28;20194;-35
2022/11/23 06:00:34;;;;;;;7.73;4.63;;;1.80;99.90;;;;;;5068719;28;20220;-34
2022/11/23 06:03:03;;;;;;;8.47;4.90;;;1.70;99.90;;;;;;5052377;28;20189;-37
2022/11/23 06:05:31;;;;;;;10.87;6.10;;;1.70;99.90;;;;;;5035288;28;20190;-39
2022/11/23 06:07:56;;;;;;;8.50;6.37;;;1.80;99.90;;;;;;5051815;28;20216;-37
2022/11/23 06:10:26;;;;;;;11.17;7.20;;;1.80;99.90;;;;;;5035706;28;20220;-35
2022/11/23 06:12:52;;;;;;;11.93;7.03;;;1.80;99.90;;;;;;5052210;28;20182;-37
2022/11/23 06:15:19;;;;;;;11.20;7.37;;;1.90;99.90;;;;;;5051767;28;20181;-38
2022/11/23 06:17:46;;;;;;;13.20;8.07;;;1.90;99.90;;;;;;5035103;28;20197;-39
2022/11/23 06:20:17;;;;;;;13.37;7.80;;;1.80;99.90;;;;;;5034765;28;20256;-37
2022/11/23 06:22:54;;;;;;;15.23;8.10;;;1.80;99.90;;;;;;5052161;28;20182;-34
2022/11/23 06:25:22;;;;;;;14.40;7.80;;;1.80;99.90;;;;;;5051203;28;20223;-38
2022/11/23 06:28:00;;;;;;;13.20;8.60;;;1.80;99.90;;;;;;5035937;28;20202;-37
2022/11/23 06:30:32;;;;;;;10.43;7.53;;;1.70;99.90;;;;;;5035816;28;20231;-33
2022/11/23 06:33:04;;;;;;;12.40;7.60;;;1.70;99.90;;;;;;5034333;28;20216;-34
2022/11/23 06:35:36;;;;;;;7.73;6.90;;;1.70;99.90;;;;;;5035812;28;20213;-36
2022/11/23 06:38:03;;;;;;;9.40;6.97;;;1.70;99.90;;;;;;5052679;28;20300;-35
2022/11/23 06:40:30;;;;;;;6.50;5.30;;;1.70;99.90;;;;;;5050021;28;20213;-37
2022/11/23 06:43:00;;;;;;;10.43;6.00;;;1.70;99.90;;;;;;5051489;28;20178;-35
2022/11/23 06:45:34;;;;;;;5.13;4.30;;;1.70;99.90;;;;;;5051518;28;20220;-34
2022/11/23 06:48:07;;;;;;;7.23;3.80;;;1.60;99.90;;;;;;5035182;28;20205;-39
2022/11/23 06:50:38;;;;;;;6.73;4.17;;;1.60;99.90;;;;;;5035622;28;20200;-35
2022/11/23 06:53:04;;;;;;;7.67;4.70;;;1.70;99.90;;;;;;5051017;28;20215;-34
2022/11/23 06:55:42;;;;;;;8.77;4.33;;;1.60;99.90;;;;;;5050653;28;20177;-35
2022/11/23 06:58:10;;;;;;;7.40;4.40;;;1.60;99.90;;;;;;5050061;28;20211;-34
2022/11/23 07:00:36;;;;;;;10.13;6.13;;;1.60;99.90;;;;;;5047994;28;20197;-34
2022/11/23 07:03:02;;;;;;;12.20;7.33;;;1.50;99.90;;;;;;5021329;28;20185;-36
2022/11/23 07:05:37;;;;;;;14.23;7.93;;;1.60;99.90;;;;;;5050896;28;20595;-37
2022/11/23 07:08:04;;;;;;;13.93;8.20;;;1.50;99.90;;;;;;5050454;28;20205;-37
2022/11/23 07:10:31;;;;;;;16.17;9.23;;;1.50;99.90;;;;;;5034003;28;20198;-34
2022/11/23 07:13:07;;;;;;;14.63;8.30;;;1.60;99.90;;;;;;5033989;28;20578;-37
2022/11/23 07:15:35;;;;;;;11.53;8.03;;;1.50;99.90;;;;;;5036496;28;20164;-35
2022/11/23 07:18:01;;;;;;;12.43;7.57;;;1.50;99.90;;;;;;5034801;28;20201;-35
2022/11/23 07:20:27;;;;;;;10.27;7.33;;;1.50;99.90;;;;;;5051222;28;20185;-37
2022/11/23 07:23:00;;;;;;;14.60;9.40;;;1.50;99.90;;;;;;5050986;28;20177;-37
2022/11/23 07:25:27;;;;;;;16.77;11.40;;;1.50;99.90;;;;;;5050903;28;20182;-37
2022/11/23 07:27:57;;;;;;;19.80;13.27;;;1.60;99.90;;;;;;5033945;28;20210;-36
2022/11/23 07:30:24;;;;;;;30.53;16.30;;;1.70;99.90;;;;;;5034086;28;20201;-39
2022/11/23 07:32:51;;;;;;;12.30;8.03;;;1.70;99.90;;;;;;5034335;28;20237;-36
2022/11/23 07:35:18;;;;;;;15.57;8.07;;;1.70;99.90;;;;;;5033999;28;20181;-35
2022/11/23 07:37:45;;;;;;;12.13;7.87;;;1.80;99.90;;;;;;5033720;28;20213;-36
2022/11/23 07:40:11;;;;;;;11.27;7.17;;;1.80;99.90;;;;;;5034063;28;20185;-37
2022/11/23 07:42:38;;;;;;;12.27;7.13;;;1.90;99.90;;;;;;5050576;28;20178;-39
2022/11/23 07:45:05;;;;;;;10.77;6.93;;;1.90;99.90;;;;;;5050263;28;20256;-33
2022/11/23 07:47:31;;;;;;;10.40;6.97;;;1.90;99.90;;;;;;5050119;28;20201;-35
2022/11/23 07:49:57;;;;;;;16.97;7.87;;;1.90;99.90;;;;;;5050240;28;20209;-36
2022/11/23 07:52:23;;;;;;;7.83;4.53;;;2.00;99.90;;;;;;5051224;28;20181;-38
2022/11/23 07:54:49;;;;;;;6.53;4.30;;;2.10;99.90;;;;;;5033606;28;20175;-34
2022/11/23 07:57:15;;;;;;;6.27;3.87;;;2.10;99.90;;;;;;5028353;28;20198;-33
2022/11/23 07:59:41;;;;;;;6.33;4.30;;;2.10;99.90;;;;;;5012599;28;20192;-37
2022/11/23 08:02:11;;;;;;;6.23;4.03;;;2.20;99.90;;;;;;5030680;28;20647;-37
2022/11/23 08:04:37;;;;;;;9.37;4.90;;;2.20;99.90;;;;;;5035140;28;20272;-37
2022/11/23 08:07:02;;;;;;;10.53;5.23;;;2.30;99.90;;;;;;5033117;28;20209;-34
2022/11/23 08:09:28;;;;;;;12.23;5.77;;;2.40;99.90;;;;;;5051317;28;20176;-35
2022/11/23 08:11:54;;;;;;;9.93;5.40;;;2.50;99.90;;;;;;5051880;28;20254;-35
2022/11/23 08:14:20;;;;;;;10.33;5.90;;;2.60;99.90;;;;;;5051082;28;20228;-33
2022/11/23 08:16:50;;;;;;;8.40;5.07;;;2.70;99.90;;;;;;5049647;28;20205;-37
2022/11/23 08:19:16;;;;;;;10.13;4.93;;;2.80;99.90;;;;;;5033309;28;20635;-37
2022/11/23 08:21:43;;;;;;;8.63;5.63;;;3.00;99.90;;;;;;5033637;28;20193;-35
2022/11/23 08:24:09;;;;;;;10.90;4.80;;;3.10;99.90;;;;;;5049956;28;20240;-37
2022/11/23 08:26:35;;;;;;;7.00;4.20;;;3.10;99.90;;;;;;5049470;28;20190;-41
2022/11/23 08:29:01;;;;;;;8.20;3.70;;;3.20;99.90;;;;;;5032982;28;20181;-40
2022/11/23 08:31:26;;;;;;;6.63;4.60;;;3.40;99.90;;;;;;5049539;28;20210;-37
2022/11/23 08:33:52;;;;;;;7.27;4.97;;;3.50;99.90;;;;;;5033191;28;20220;-40
2022/11/23 08:36:19;;;;;;;9.77;5.73;;;3.50;99.90;;;;;;5049658;28;20189;-37
2022/11/23 08:38:45;;;;;;;8.97;5.50;;;3.40;99.90;;;;;;5049302;28;20189;-38
2022/11/23 08:41:11;;;;;;;10.00;5.53;;;3.40;99.90;;;;;;5032825;28;20531;-37
2022/11/23 08:43:36;;;;;;;10.70;5.53;;;3.40;99.90;;;;;;5032742;28;20193;-38
2022/11/23 08:46:04;;;;;;;11.93;6.20;;;3.40;99.90;;;;;;5049666;28;20264;-37
2022/11/23 08:48:30;;;;;;;10.43;6.80;;;3.50;99.90;;;;;;5050706;28;20193;-34
2022/11/23 08:50:59;;;;;;;11.10;6.30;;;3.60;99.90;;;;;;5049323;28;20615;-37
2022/11/23 08:53:25;;;;;;;10.87;5.37;;;3.70;99.90;;;;;;5032690;28;20228;-37
2022/11/23 08:55:51;;;;;;;9.93;5.10;;;3.80;99.90;;;;;;5032682;28;20700;-37
2022/11/23 08:58:17;;;;;;;9.53;4.27;;;3.80;99.90;;;;;;5048906;28;20193;-38
2022/11/23 09:00:43;;;;;;;9.30;4.83;;;4.00;99.90;;;;;;5049349;28;20209;-37
2022/11/23 09:03:09;;;;;;;11.03;4.47;;;4.00;99.90;;;;;;5032971;28;20528;-34
2022/11/23 09:05:36;;;;;;;9.23;4.00;;;4.10;99.90;;;;;;5036894;28;20186;-37
2022/11/23 09:08:02;;;;;;;6.80;3.60;;;4.10;99.90;;;;;;5054362;28;20205;-34
2022/11/23 09:10:28;;;;;;;6.40;3.70;;;4.30;99.90;;;;;;5053001;28;20228;-38
2022/11/23 09:12:54;;;;;;;6.77;3.73;;;4.40;99.90;;;;;;5054758;28;20265;-35
2022/11/23 09:15:20;;;;;;;8.37;4.00;;;4.50;99.90;;;;;;5052246;28;20175;-38
2022/11/23 09:17:46;;;;;;;5.93;3.43;;;4.60;99.90;;;;;;5051186;28;20354;-38
2022/11/23 09:20:12;;;;;;;6.50;4.27;;;4.70;99.90;;;;;;5036491;28;20250;-34
2022/11/23 09:22:38;;;;;;;5.87;3.40;;;4.80;99.90;;;;;;5053001;28;20185;-37
2022/11/23 09:25:05;;;;;;;8.87;3.37;;;4.90;99.90;;;;;;5036137;28;20182;-37
2022/11/23 09:27:31;;;;;;;8.83;3.57;;;5.00;99.90;;;;;;5051926;28;20692;-36
2022/11/23 09:29:58;;;;;;;7.63;3.77;;;5.10;99.90;;;;;;5031438;28;20189;-42
2022/11/23 09:32:24;;;;;;;9.97;3.73;;;5.20;99.90;;;;;;5048965;28;20270;-41
2022/11/23 09:34:50;;;;;;;9.03;3.30;;;5.30;99.90;;;;;;5052125;28;20294;-40
2022/11/23 09:37:16;;;;;;;5.70;3.57;;;5.30;99.90;;;;;;5036170;28;20198;-40
2022/11/23 09:39:42;;;;;;;9.10;3.23;;;5.40;99.90;;;;;;5052444;28;20295;-41
2022/11/23 09:42:26;;;;;;;8.27;3.20;;;5.50;99.90;;;;;;5052821;28;20186;-41
2022/11/23 09:45:02;;;;;;;7.93;3.70;;;5.60;99.90;;;;;;5036129;28;20186;-41
2022/11/23 09:47:53;;;;;;;7.53;3.87;;;5.70;99.90;;;;;;5035772;28;20231;-41
2022/11/23 09:50:49;;;;;;;6.27;3.50;;;5.80;99.90;;;;;;5035710;28;20254;-39
2022/11/23 09:53:36;;;;;;;7.17;3.73;;;5.90;99.90;;;;;;5052721;28;20198;-41
2022/11/23 09:56:02;;;;;;;9.47;4.20;;;6.00;99.90;;;;;;5035907;28;20188;-41
2022/11/23 09:58:34;;;;;;;5.97;3.80;;;6.10;99.90;;;;;;5051801;28;20202;-41
2022/11/23 10:01:01;;;;;;;7.00;3.63;;;6.20;99.90;;;;;;5035521;28;20207;-42
2022/11/23 10:03:31;;;;;;;7.37;4.27;;;6.30;99.90;;;;;;5036046;28;20181;-40
2022/11/23 10:06:13;;;;;;;8.00;3.57;;;6.40;99.90;;;;;;5052185;28;20283;-41
2022/11/23 10:09:13;;;;;;;7.93;3.60;;;6.50;99.90;;;;;;5035594;28;20576;-42
2022/11/23 10:12:07;;;;;;;7.63;3.77;;;6.60;99.90;;;;;;5035577;28;20209;-41
2022/11/23 10:14:36;;;;;;;7.70;4.03;;;6.70;99.90;;;;;;5036981;28;20188;-41
2022/11/23 10:17:23;;;;;;;5.00;3.80;;;6.70;99.90;;;;;;5053995;28;20217;-40
2022/11/23 10:20:06;;;;;;;6.07;3.70;;;6.70;99.90;;;;;;5035466;28;20275;-38
2022/11/23 10:22:51;;;;;;;5.13;3.30;;;6.80;99.90;;;;;;5035402;28;20291;-41
2022/11/23 10:25:20;;;;;;;5.37;3.20;;;6.90;99.90;;;;;;5052067;28;20232;-41
2022/11/23 10:27:49;;;;;;;6.00;3.57;;;6.90;99.90;;;;;;5051720;28;20200;-42
2022/11/23 10:30:17;;;;;;;7.37;3.77;;;7.00;99.90;;;;;;5035396;28;20221;-40
2022/11/23 10:32:52;;;;;;;5.90;3.30;;;7.10;99.90;;;;;;5035373;28;20271;-42
2022/11/23 10:35:27;;;;;;;4.57;2.73;;;7.20;99.90;;;;;;5034965;28;20376;-41
2022/11/23 10:38:13;;;;;;;4.97;2.87;;;7.30;99.90;;;;;;5051179;28;20201;-41
2022/11/23 10:40:57;;;;;;;6.60;3.30;;;7.30;99.90;;;;;;5035104;28;20265;-41
2022/11/23 10:43:29;;;;;;;5.00;3.23;;;7.40;99.90;;;;;;5051849;28;20189;-40
2022/11/23 10:46:32;;;;;;;6.07;3.50;;;7.50;99.90;;;;;;5035291;28;20291;-41
2022/11/23 10:49:31;;;;;;;8.87;3.70;;;7.50;99.90;;;;;;5034731;28;20182;-41
2022/11/23 10:52:30;;;;;;;5.43;3.17;;;7.60;99.90;;;;;;5051368;28;20295;-41
2022/11/23 10:54:59;;;;;;;5.43;2.83;;;7.60;99.90;;;;;;5034788;28;20178;-41
2022/11/23 10:57:32;;;;;;;6.73;2.93;;;7.60;99.90;;;;;;5034448;28;20205;-41
2022/11/23 11:00:00;;;;;;;5.43;3.13;;;7.70;99.90;;;;;;5051462;28;20197;-41
2022/11/23 11:02:26;;;;;;;9.43;3.50;;;7.70;99.90;;;;;;5034095;28;20197;-41
2022/11/23 11:05:13;;;;;;;8.27;2.83;;;7.70;99.90;;;;;;5045105;28;20182;-41
2022/11/23 11:07:39;;;;;;;4.07;2.50;;;7.80;99.90;;;;;;5030943;28;20203;-41
2022/11/23 11:10:25;;;;;;;7.47;4.47;;;7.90;99.90;;;;;;5032578;28;20299;-41
2022/11/23 11:12:51;;;;;;;7.63;4.30;;;8.00;99.90;;;;;;5031664;28;20201;-42
2022/11/23 11:15:17;;;;;;;6.63;3.10;;;8.10;99.90;;;;;;5031100;28;20217;-42
2022/11/23 11:17:43;;;;;;;7.00;2.63;;;8.10;99.90;;;;;;5030404;28;20202;-41
2022/11/23 11:20:27;;;;;;;5.47;2.57;;;8.10;99.90;;;;;;5031038;28;20186;-41
2022/11/23 11:23:15;;;;;;;5.00;2.27;;;8.20;99.90;;;;;;5030916;28;20186;-42
2022/11/23 11:25:41;;;;;;;4.63;2.10;;;8.30;99.90;;;;;;5013869;28;20288;-42
2022/11/23 11:28:26;;;;;;;5.30;2.70;;;8.40;99.90;;;;;;5029862;28;20198;-41
2022/11/23 11:31:27;;;;;;;6.47;2.50;;;8.50;99.90;;;;;;5014243;28;20217;-42
2022/11/23 11:34:15;;;;;;;4.87;2.20;;;8.60;99.90;;;;;;5043078;28;20187;-41
2022/11/23 11:36:54;;;;;;;4.50;2.07;;;8.60;99.90;;;;;;5035557;28;20174;-41
2022/11/23 11:39:27;;;;;;;5.57;2.70;;;8.70;99.90;;;;;;5049525;28;20169;-41
2022/11/23 11:41:56;;;;;;;4.37;2.40;;;8.80;99.90;;;;;;5044599;28;20183;-42
2022/11/23 11:44:24;;;;;;;5.83;2.20;;;8.90;99.90;;;;;;5050505;28;20182;-41
2022/11/23 11:46:57;;;;;;;5.07;2.33;;;9.00;99.90;;;;;;5045086;28;20265;-42
2022/11/23 11:49:30;;;;;;;6.50;2.23;;;9.00;99.90;;;;;;5033625;28;20193;-41
2022/11/23 11:52:20;;;;;;;5.33;2.27;;;9.20;99.90;;;;;;5050498;28;20221;-42
2022/11/23 11:54:52;;;;;;;5.87;2.73;;;9.20;99.90;;;;;;5031828;28;20185;-42
2022/11/23 11:57:23;;;;;;;6.90;2.83;;;9.40;99.90;;;;;;5033061;28;20202;-42
2022/11/23 11:59:54;;;;;;;5.03;2.40;;;9.50;99.90;;;;;;5050184;28;20181;-41
2022/11/23 12:02:26;;;;;;;2.87;2.10;;;9.60;99.90;;;;;;5033396;28;20193;-42
2022/11/23 12:05:24;;;;;;;2.83;1.87;;;9.70;99.90;;;;;;5045273;28;20229;-41
2022/11/23 12:08:10;;;;;;;2.80;2.07;;;9.70;99.90;;;;;;5065529;28;20198;-41
2022/11/23 12:10:49;;;;;;;4.80;2.83;;;9.90;99.90;;;;;;5033262;28;20263;-41
2022/11/23 12:13:19;;;;;;;4.50;2.03;;;10.00;99.90;;;;;;5050127;28;20244;-41
2022/11/23 12:16:00;;;;;;;5.10;2.07;;;10.10;99.90;;;;;;5047457;28;20175;-41
2022/11/23 12:19:00;;;;;;;7.47;2.30;;;10.10;99.90;;;;;;5029842;28;20264;-39
2022/11/23 12:21:41;;;;;;;4.67;2.50;;;10.20;99.90;;;;;;5048597;28;20281;-42
2022/11/23 12:24:25;;;;;;;6.70;2.37;;;10.30;99.90;;;;;;5033066;28;20182;-42
2022/11/23 12:27:09;;;;;;;4.50;2.47;;;10.30;99.90;;;;;;5032824;28;20205;-42
2022/11/23 12:29:37;;;;;;;3.27;1.87;;;10.40;99.90;;;;;;5032969;28;20292;-41
2022/11/23 12:32:25;;;;;;;3.70;2.43;;;10.50;99.90;;;;;;5031572;28;20216;-42
2022/11/23 12:35:16;;;;;;;3.33;2.10;;;10.60;99.90;;;;;;5050036;28;20193;-42
2022/11/23 12:37:45;;;;;;;4.57;1.83;;;10.40;99.90;;;;;;5015698;28;20222;-40
2022/11/23 12:40:37;;;;;;;4.73;2.20;;;10.30;99.90;;;;;;5035737;28;20172;-40
2022/11/23 12:43:16;;;;;;;5.03;1.87;;;10.40;99.90;;;;;;5018700;28;20183;-41
2022/11/23 12:46:07;;;;;;;4.53;2.60;;;10.50;99.90;;;;;;5049336;28;20247;-42
2022/11/23 12:48:39;;;;;;;4.20;1.83;;;10.40;99.90;;;;;;5034942;28;20256;-40
2022/11/23 12:51:24;;;;;;;3.90;1.67;;;10.50;99.90;;;;;;5044526;28;20214;-41
2022/11/23 12:54:02;;;;;;;4.67;2.10;;;10.60;99.90;;;;;;5046036;28;20179;-41
2022/11/23 12:56:51;;;;;;;4.07;2.07;;;10.80;99.90;;;;;;5046888;28;20185;-35
2022/11/23 12:59:17;;;;;;;3.60;2.03;;;10.90;99.90;;;;;;5052409;28;20186;-42
2022/11/23 13:01:59;;;;;;;4.10;2.03;;;11.10;99.90;;;;;;5044410;28;20527;-40
2022/11/23 13:04:34;;;;;;;2.80;1.90;;;11.10;99.90;;;;;;5032396;28;20187;-41
2022/11/23 13:07:32;;;;;;;4.63;1.43;;;11.30;99.90;;;;;;5032486;28;20281;-41
2022/11/23 13:10:16;;;;;;;3.20;1.60;;;11.40;99.90;;;;;;5049114;28;20210;-40
2022/11/23 13:12:42;;;;;;;1.60;1.17;;;11.50;99.90;;;;;;5049400;28;20194;-39